Time;durP1;ratioP1;P1;durP2;ratioP2;P2;SDS_P1;SDS_P2;PMS_P1;PMS_P2;Temp;Humidity;BMP_temperature;BMP_pressure;BME280_temperature;BME280_humidity;BME280_pressure;Samples;Min_cycle;Max_cycle;Signal;HPM_P1;HPM_P2
2022/03/24 00:01:45;;;;;;;118.50;54.88;;;;;;;;;;5000933;28;20038;-78
2022/03/24 00:04:11;;;;;;;106.43;57.08;;;;;;;;;;4999460;28;20093;-74
2022/03/24 00:06:37;;;;;;;106.85;53.28;;;;;;;;;;4993676;28;20133;-75
2022/03/24 00:09:03;;;;;;;111.05;54.63;;;;;;;;;;4995581;28;20022;-77
2022/03/24 00:11:30;;;;;;;107.20;54.25;;;;;;;;;;5000015;28;20026;-79
2022/03/24 00:13:56;;;;;;;109.90;54.53;;;;;;;;;;5000336;28;20498;-77
2022/03/24 00:16:22;;;;;;;98.40;51.15;;;;;;;;;;4997348;28;20084;-76
2022/03/24 00:18:48;;;;;;;104.40;54.75;;;;;;;;;;4998145;28;20093;-76
2022/03/24 00:21:16;;;;;;;106.70;54.03;;;;;;;;;;4998849;28;20030;-77
2022/03/24 00:23:41;;;;;;;105.20;54.60;;;;;;;;;;4997539;28;20122;-79
2022/03/24 00:26:07;;;;;;;103.60;55.50;;;;;;;;;;4998146;28;20049;-78
2022/03/24 00:28:33;;;;;;;104.40;54.33;;;;;;;;;;4998455;28;20431;-78
2022/03/24 00:31:00;;;;;;;102.45;53.58;;;;;;;;;;4996458;28;20427;-77
2022/03/24 00:33:26;;;;;;;102.60;53.22;;;;;;;;;;4997349;28;20031;-76
2022/03/24 00:35:52;;;;;;;95.35;51.10;;;;;;;;;;5004771;28;20078;-77
2022/03/24 00:38:18;;;;;;;101.63;50.80;;;;;;;;;;5000694;28;20083;-79
2022/03/24 00:40:44;;;;;;;104.60;52.40;;;;;;;;;;4998787;28;20029;-79
2022/03/24 00:43:10;;;;;;;105.30;52.22;;;;;;;;;;5000451;28;20522;-77
2022/03/24 00:45:38;;;;;;;100.85;50.05;;;;;;;;;;5009297;28;20026;-77
2022/03/24 00:48:04;;;;;;;106.45;53.83;;;;;;;;;;5003918;28;20022;-77
2022/03/24 00:50:30;;;;;;;109.88;53.35;;;;;;;;;;5002904;28;20050;-76
2022/03/24 00:52:56;;;;;;;96.43;50.90;;;;;;;;;;5007797;28;20033;-75
2022/03/24 00:55:22;;;;;;;95.00;52.33;;;;;;;;;;5013073;28;20057;-77
2022/03/24 00:57:49;;;;;;;102.10;50.80;;;;;;;;;;5007684;28;20034;-78
2022/03/24 01:00:16;;;;;;;98.47;50.65;;;;;;;;;;5008172;28;20006;-75
2022/03/24 01:02:43;;;;;;;100.15;53.38;;;;;;;;;;5016921;28;20009;-74
2022/03/24 01:05:10;;;;;;;96.40;50.75;;;;;;;;;;5017407;28;20030;-77
2022/03/24 01:07:36;;;;;;;106.55;52.28;;;;;;;;;;5017514;28;20031;-76
2022/03/24 01:10:03;;;;;;;94.40;52.60;;;;;;;;;;5016015;28;20046;-73
2022/03/24 01:12:29;;;;;;;103.93;54.20;;;;;;;;;;5017727;28;20033;-75
2022/03/24 01:14:56;;;;;;;98.75;51.97;;;;;;;;;;5017703;28;20011;-74
2022/03/24 01:17:25;;;;;;;100.28;51.58;;;;;;;;;;5017126;28;20034;-76
2022/03/24 01:19:51;;;;;;;96.05;53.15;;;;;;;;;;5017655;28;20026;-75
2022/03/24 01:22:17;;;;;;;93.78;51.28;;;;;;;;;;5017610;28;20090;-74
2022/03/24 01:24:43;;;;;;;96.20;52.35;;;;;;;;;;4997562;28;20062;-78
2022/03/24 01:27:10;;;;;;;106.43;54.28;;;;;;;;;;4997796;28;20019;-78
2022/03/24 01:29:37;;;;;;;112.53;53.10;;;;;;;;;;4998274;28;20054;-79
2022/03/24 01:32:03;;;;;;;96.18;52.25;;;;;;;;;;4998162;28;20498;-79
2022/03/24 01:34:29;;;;;;;90.57;50.33;;;;;;;;;;4997288;28;20500;-78
2022/03/24 01:36:55;;;;;;;104.75;52.85;;;;;;;;;;5002847;28;20026;-77
2022/03/24 01:39:22;;;;;;;104.60;53.03;;;;;;;;;;5002816;28;20069;-78
2022/03/24 01:41:48;;;;;;;112.95;55.08;;;;;;;;;;5004951;28;20050;-78
2022/03/24 01:44:18;;;;;;;99.70;52.95;;;;;;;;;;5004954;28;20102;-77
2022/03/24 01:47:02;;;;;;;101.75;53.17;;;;;;;;;;5005100;28;20056;-77
2022/03/24 01:49:30;;;;;;;104.10;53.13;;;;;;;;;;5006923;28;20041;-77
2022/03/24 01:51:56;;;;;;;93.47;51.88;;;;;;;;;;5010330;28;20049;-77
2022/03/24 01:54:23;;;;;;;100.05;52.42;;;;;;;;;;5009207;28;20122;-76
2022/03/24 01:56:49;;;;;;;101.45;51.63;;;;;;;;;;5006250;28;20034;-76
2022/03/24 01:59:16;;;;;;;103.30;53.22;;;;;;;;;;5003676;28;20030;-76
2022/03/24 02:01:42;;;;;;;93.18;51.33;;;;;;;;;;5005465;28;20500;-79
2022/03/24 02:04:09;;;;;;;99.22;53.17;;;;;;;;;;5010060;28;20109;-77
2022/03/24 02:06:35;;;;;;;100.57;53.33;;;;;;;;;;5005125;28;20027;-77
2022/03/24 02:09:01;;;;;;;101.32;52.58;;;;;;;;;;5011583;28;20050;-76
2022/03/24 02:11:28;;;;;;;105.25;53.42;;;;;;;;;;5003469;28;20085;-76
2022/03/24 02:13:55;;;;;;;96.70;51.78;;;;;;;;;;5000632;28;20050;-78
2022/03/24 02:16:21;;;;;;;102.38;54.60;;;;;;;;;;5006076;28;20022;-78
2022/03/24 02:18:48;;;;;;;96.32;52.38;;;;;;;;;;4997917;28;20030;-77
2022/03/24 02:21:15;;;;;;;100.15;52.05;;;;;;;;;;4997307;28;20030;-77
2022/03/24 02:23:41;;;;;;;98.50;53.45;;;;;;;;;;4996742;28;20530;-79
2022/03/24 02:26:09;;;;;;;102.13;52.13;;;;;;;;;;5000651;28;20121;-78
2022/03/24 02:28:35;;;;;;;98.07;52.08;;;;;;;;;;5009034;28;20022;-78
2022/03/24 02:31:01;;;;;;;100.72;52.78;;;;;;;;;;5008215;28;20061;-75
2022/03/24 02:33:27;;;;;;;109.00;53.28;;;;;;;;;;5009687;28;20066;-77
2022/03/24 02:35:53;;;;;;;105.90;52.35;;;;;;;;;;5000070;28;20100;-76
2022/03/24 02:38:22;;;;;;;101.22;53.25;;;;;;;;;;5003420;28;20647;-78
2022/03/24 02:40:51;;;;;;;97.93;50.97;;;;;;;;;;5006476;28;20133;-77
2022/03/24 02:43:20;;;;;;;94.60;51.67;;;;;;;;;;5002439;28;20038;-78
2022/03/24 02:45:49;;;;;;;98.00;53.55;;;;;;;;;;4996794;28;20050;-81
2022/03/24 02:48:15;;;;;;;101.00;53.40;;;;;;;;;;4999412;28;20061;-79
2022/03/24 02:50:41;;;;;;;107.85;53.25;;;;;;;;;;5001589;28;20030;-79
2022/03/24 02:53:07;;;;;;;101.53;51.63;;;;;;;;;;4996854;28;20036;-77
2022/03/24 02:55:33;;;;;;;95.28;51.42;;;;;;;;;;4999267;28;20045;-81
2022/03/24 02:57:59;;;;;;;99.13;52.95;;;;;;;;;;5002141;28;20082;-81
2022/03/24 03:00:27;;;;;;;97.65;52.55;;;;;;;;;;5002283;28;20439;-80
2022/03/24 03:02:53;;;;;;;97.68;51.17;;;;;;;;;;5009265;28;20049;-78
2022/03/24 03:05:20;;;;;;;98.53;52.50;;;;;;;;;;5008159;28;20022;-78
2022/03/24 03:07:46;;;;;;;104.28;52.20;;;;;;;;;;5004070;28;20018;-77
2022/03/24 03:10:12;;;;;;;99.25;52.40;;;;;;;;;;4998774;28;20033;-76
2022/03/24 03:12:38;;;;;;;92.78;50.97;;;;;;;;;;5002879;28;20026;-79
2022/03/24 03:15:05;;;;;;;103.88;54.35;;;;;;;;;;5004553;28;20057;-77
2022/03/24 03:17:32;;;;;;;97.35;51.10;;;;;;;;;;5006796;28;20030;-79
2022/03/24 03:19:58;;;;;;;90.55;50.47;;;;;;;;;;5004547;28;20053;-78
2022/03/24 03:22:24;;;;;;;106.38;54.47;;;;;;;;;;4999599;28;20030;-81
2022/03/24 03:24:50;;;;;;;102.05;52.53;;;;;;;;;;4998626;28;20022;-79
2022/03/24 03:27:15;;;;;;;105.85;54.17;;;;;;;;;;4996723;28;20110;-74
2022/03/24 03:29:45;;;;;;;96.93;52.78;;;;;;;;;;4994810;28;20023;-77
2022/03/24 03:32:11;;;;;;;96.78;50.83;;;;;;;;;;5000417;28;20015;-74
2022/03/24 03:34:38;;;;;;;96.00;52.22;;;;;;;;;;4997695;28;20117;-75
2022/03/24 03:37:04;;;;;;;101.80;52.45;;;;;;;;;;4994673;28;20037;-76
2022/03/24 03:39:30;;;;;;;103.28;53.22;;;;;;;;;;4987306;28;20030;-77
2022/03/24 03:41:57;;;;;;;95.25;52.58;;;;;;;;;;4980944;28;20106;-79
2022/03/24 03:44:23;;;;;;;100.63;52.65;;;;;;;;;;4980701;28;20026;-76
2022/03/24 03:46:50;;;;;;;98.30;51.13;;;;;;;;;;4979976;28;20049;-78
2022/03/24 03:49:18;;;;;;;105.47;51.75;;;;;;;;;;4984857;28;20031;-76
2022/03/24 03:51:45;;;;;;;91.65;49.30;;;;;;;;;;4998612;28;20018;-76
2022/03/24 03:54:10;;;;;;;98.00;51.13;;;;;;;;;;4989252;28;20026;-79
2022/03/24 03:56:37;;;;;;;109.20;54.03;;;;;;;;;;4987128;28;20039;-79
2022/03/24 03:59:04;;;;;;;97.93;52.28;;;;;;;;;;4984403;28;20050;-76
2022/03/24 04:01:30;;;;;;;111.07;53.38;;;;;;;;;;4983118;28;20031;-77
2022/03/24 04:03:57;;;;;;;107.65;54.08;;;;;;;;;;4982936;28;20023;-77
2022/03/24 04:06:24;;;;;;;107.32;54.10;;;;;;;;;;4981893;28;20081;-78
2022/03/24 04:08:50;;;;;;;106.80;54.08;;;;;;;;;;4980826;28;20023;-78
2022/03/24 04:11:16;;;;;;;105.57;54.25;;;;;;;;;;4988390;28;20053;-75
2022/03/24 04:13:42;;;;;;;104.63;53.92;;;;;;;;;;5003133;28;20455;-75
2022/03/24 04:16:11;;;;;;;113.63;54.85;;;;;;;;;;5007430;28;20530;-77
2022/03/24 04:18:41;;;;;;;112.10;55.53;;;;;;;;;;4998667;28;20031;-77
2022/03/24 04:21:07;;;;;;;106.90;54.13;;;;;;;;;;5007004;28;20030;-77
2022/03/24 04:23:34;;;;;;;108.30;55.35;;;;;;;;;;4997618;28;20102;-78
2022/03/24 04:26:00;;;;;;;107.60;53.75;;;;;;;;;;4997075;28;20076;-78
2022/03/24 04:28:26;;;;;;;109.20;52.97;;;;;;;;;;4997395;28;20093;-77
2022/03/24 04:30:52;;;;;;;102.53;53.47;;;;;;;;;;4998049;28;20483;-79
2022/03/24 04:33:18;;;;;;;109.38;54.67;;;;;;;;;;4998982;28;20030;-78
2022/03/24 04:35:44;;;;;;;109.15;56.53;;;;;;;;;;4996182;28;20502;-78
2022/03/24 04:38:11;;;;;;;112.88;55.33;;;;;;;;;;4994106;28;20084;-77
2022/03/24 04:40:37;;;;;;;103.18;54.33;;;;;;;;;;4996842;28;20026;-78
2022/03/24 04:43:04;;;;;;;107.38;56.00;;;;;;;;;;4995646;28;20023;-76
2022/03/24 04:45:32;;;;;;;123.25;56.40;;;;;;;;;;4997392;28;20106;-77
2022/03/24 04:47:59;;;;;;;112.72;57.33;;;;;;;;;;4998158;28;20030;-77
2022/03/24 04:50:26;;;;;;;106.97;54.83;;;;;;;;;;5004212;28;20049;-79
2022/03/24 04:52:52;;;;;;;110.25;55.28;;;;;;;;;;5006939;28;20026;-79
2022/03/24 04:55:18;;;;;;;118.00;58.55;;;;;;;;;;5005413;28;20037;-78
2022/03/24 04:57:44;;;;;;;108.93;55.13;;;;;;;;;;5000613;28;20455;-78
2022/03/24 05:00:11;;;;;;;105.53;55.17;;;;;;;;;;4999655;28;20388;-78
2022/03/24 05:02:37;;;;;;;112.38;55.78;;;;;;;;;;5005719;28;20034;-76
2022/03/24 05:05:04;;;;;;;103.55;53.97;;;;;;;;;;5005291;28;20571;-77
2022/03/24 05:07:30;;;;;;;107.32;55.13;;;;;;;;;;5011740;28;20022;-77
2022/03/24 05:09:56;;;;;;;111.60;55.40;;;;;;;;;;5011411;28;20042;-74
2022/03/24 05:12:21;;;;;;;111.90;56.35;;;;;;;;;;5001574;28;20038;-76
2022/03/24 05:14:50;;;;;;;105.18;55.83;;;;;;;;;;4996340;28;20041;-76
2022/03/24 05:17:16;;;;;;;111.00;54.13;;;;;;;;;;4995745;28;20029;-77
2022/03/24 05:19:44;;;;;;;109.10;53.63;;;;;;;;;;4999556;28;20023;-76
2022/03/24 05:22:11;;;;;;;114.75;57.90;;;;;;;;;;4997946;28;20026;-77
2022/03/24 05:24:38;;;;;;;112.78;55.05;;;;;;;;;;5000870;28;20037;-77
2022/03/24 05:27:05;;;;;;;106.47;56.50;;;;;;;;;;5001481;28;20069;-76
2022/03/24 05:29:31;;;;;;;112.38;55.58;;;;;;;;;;4997458;28;20033;-77
2022/03/24 05:31:57;;;;;;;109.35;57.58;;;;;;;;;;4998772;28;20050;-75
2022/03/24 05:34:23;;;;;;;114.18;58.38;;;;;;;;;;4996554;28;20038;-77
2022/03/24 05:36:50;;;;;;;111.85;57.50;;;;;;;;;;4996734;28;20682;-76
2022/03/24 05:39:16;;;;;;;114.10;56.97;;;;;;;;;;4997215;28;20395;-74
2022/03/24 05:41:42;;;;;;;116.13;57.13;;;;;;;;;;5000676;28;20102;-78
2022/03/24 05:44:08;;;;;;;116.25;56.08;;;;;;;;;;5002235;28;20054;-78
2022/03/24 05:46:35;;;;;;;102.35;53.55;;;;;;;;;;5001750;28;20057;-76
2022/03/24 05:49:02;;;;;;;112.15;57.60;;;;;;;;;;5000215;28;20030;-78
2022/03/24 05:51:28;;;;;;;109.35;56.47;;;;;;;;;;5000679;28;20041;-78
2022/03/24 05:53:55;;;;;;;122.82;61.47;;;;;;;;;;5002351;28;20038;-79
2022/03/24 05:56:22;;;;;;;114.30;58.70;;;;;;;;;;5003146;28;20034;-78
2022/03/24 05:58:48;;;;;;;118.13;58.65;;;;;;;;;;5015456;28;20022;-77
2022/03/24 06:01:15;;;;;;;105.40;56.38;;;;;;;;;;5008014;28;20080;-79
2022/03/24 06:03:42;;;;;;;107.10;54.13;;;;;;;;;;5005836;28;20384;-79
2022/03/24 06:06:09;;;;;;;105.85;53.80;;;;;;;;;;5002243;28;20033;-78
2022/03/24 06:08:35;;;;;;;110.05;53.92;;;;;;;;;;5004119;28;20127;-78
2022/03/24 06:11:01;;;;;;;107.47;54.83;;;;;;;;;;5009081;28;20094;-78
2022/03/24 06:13:27;;;;;;;117.30;57.42;;;;;;;;;;5011512;28;20043;-76
2022/03/24 06:15:55;;;;;;;115.95;58.60;;;;;;;;;;5008190;28;20399;-79
2022/03/24 06:18:21;;;;;;;114.95;57.90;;;;;;;;;;5004284;28;20439;-79
2022/03/24 06:20:48;;;;;;;107.03;55.55;;;;;;;;;;5004018;28;20030;-81
2022/03/24 06:23:14;;;;;;;116.15;55.97;;;;;;;;;;5006059;28;20045;-82
2022/03/24 06:25:43;;;;;;;117.10;58.45;;;;;;;;;;5006141;28;20022;-79
2022/03/24 06:28:09;;;;;;;117.90;57.80;;;;;;;;;;5015125;28;20026;-79
2022/03/24 06:30:35;;;;;;;115.80;57.80;;;;;;;;;;5015021;28;20022;-82
2022/03/24 06:33:01;;;;;;;109.68;58.28;;;;;;;;;;5005391;28;20057;-81
2022/03/24 06:35:27;;;;;;;117.35;60.63;;;;;;;;;;5002547;28;20038;-78
2022/03/24 06:37:53;;;;;;;118.45;61.42;;;;;;;;;;5000241;28;20096;-76
2022/03/24 06:40:20;;;;;;;114.10;60.60;;;;;;;;;;5001982;28;20026;-78
2022/03/24 06:42:46;;;;;;;118.28;59.03;;;;;;;;;;5004738;28;20046;-81
2022/03/24 06:45:13;;;;;;;119.60;62.63;;;;;;;;;;5002815;28;20027;-78
2022/03/24 06:47:40;;;;;;;119.28;61.30;;;;;;;;;;5005169;28;20033;-81
2022/03/24 06:50:06;;;;;;;120.75;61.33;;;;;;;;;;5005511;28;20030;-77
2022/03/24 06:52:32;;;;;;;123.35;62.78;;;;;;;;;;5008998;28;20045;-79
2022/03/24 06:54:58;;;;;;;118.13;60.88;;;;;;;;;;5006572;28;20040;-78
2022/03/24 06:57:24;;;;;;;125.72;65.00;;;;;;;;;;5002387;28;20030;-78
2022/03/24 06:59:50;;;;;;;117.32;60.80;;;;;;;;;;5003837;28;20073;-80
2022/03/24 07:02:16;;;;;;;123.97;62.97;;;;;;;;;;5003188;28;20031;-79
2022/03/24 07:04:42;;;;;;;117.53;60.95;;;;;;;;;;5001057;28;20534;-80
2022/03/24 07:07:08;;;;;;;127.50;62.17;;;;;;;;;;5006036;28;20045;-78
2022/03/24 07:09:37;;;;;;;120.22;63.35;;;;;;;;;;5005868;28;20030;-80
2022/03/24 07:12:03;;;;;;;121.05;59.67;;;;;;;;;;5002190;28;20084;-78
2022/03/24 07:14:29;;;;;;;125.35;63.05;;;;;;;;;;5005174;28;20498;-78
2022/03/24 07:16:55;;;;;;;121.38;62.00;;;;;;;;;;5002470;28;20086;-80
2022/03/24 07:19:21;;;;;;;123.70;62.70;;;;;;;;;;5003744;28;20086;-80
2022/03/24 07:21:47;;;;;;;128.13;61.80;;;;;;;;;;5004435;28;20030;-80
2022/03/24 07:24:13;;;;;;;129.68;64.10;;;;;;;;;;5016351;28;20064;-75
2022/03/24 07:26:40;;;;;;;128.18;61.28;;;;;;;;;;5012833;28;20026;-77
2022/03/24 07:29:06;;;;;;;115.00;61.80;;;;;;;;;;5003146;28;20027;-80
2022/03/24 07:31:32;;;;;;;127.75;61.25;;;;;;;;;;5005779;28;20034;-78
2022/03/24 07:33:59;;;;;;;115.50;62.45;;;;;;;;;;5007408;28;20030;-80
2022/03/24 07:36:25;;;;;;;133.05;61.47;;;;;;;;;;5005838;28;20026;-78
2022/03/24 07:38:52;;;;;;;120.05;62.05;;;;;;;;;;5004328;28;20042;-78
2022/03/24 07:41:19;;;;;;;115.72;63.60;;;;;;;;;;5001755;28;20022;-80
2022/03/24 07:43:45;;;;;;;114.88;61.13;;;;;;;;;;5010665;28;20065;-75
2022/03/24 07:46:11;;;;;;;123.20;62.17;;;;;;;;;;5011619;28;20495;-80
2022/03/24 07:48:38;;;;;;;121.88;63.92;;;;;;;;;;5008389;28;20053;-80
2022/03/24 07:51:05;;;;;;;114.97;60.85;;;;;;;;;;5013183;28;20027;-79
2022/03/24 07:53:42;;;;;;;112.13;58.15;;;;;;;;;;5014331;28;20022;-78
2022/03/24 07:56:08;;;;;;;118.47;60.50;;;;;;;;;;5008148;28;20053;-80
2022/03/24 07:58:34;;;;;;;115.60;56.35;;;;;;;;;;5001982;28;20027;-81
2022/03/24 08:01:01;;;;;;;105.97;57.15;;;;;;;;;;5002688;28;20027;-80
2022/03/24 08:03:27;;;;;;;128.85;60.28;;;;;;;;;;5003062;28;20101;-81
2022/03/24 08:05:53;;;;;;;110.10;56.67;;;;;;;;;;5004727;28;20043;-80
2022/03/24 08:08:20;;;;;;;113.75;56.05;;;;;;;;;;5000940;28;20033;-78
2022/03/24 08:10:46;;;;;;;126.65;63.22;;;;;;;;;;5001913;28;20049;-78
2022/03/24 08:13:13;;;;;;;120.68;59.13;;;;;;;;;;5003302;28;20479;-78
2022/03/24 08:15:40;;;;;;;109.97;57.88;;;;;;;;;;5004988;28;20027;-79
2022/03/24 08:18:06;;;;;;;110.28;55.10;;;;;;;;;;5006992;28;20026;-78
2022/03/24 08:20:33;;;;;;;104.28;53.72;;;;;;;;;;5008883;28;20045;-80
2022/03/24 08:22:59;;;;;;;94.95;52.25;;;;;;;;;;5008801;28;20031;-79
2022/03/24 08:25:25;;;;;;;92.85;51.20;;;;;;;;;;5007428;28;20054;-78
2022/03/24 08:27:50;;;;;;;101.93;53.75;;;;;;;;;;5006543;28;20029;-77
2022/03/24 08:30:16;;;;;;;109.78;54.45;;;;;;;;;;5002714;28;20125;-79
2022/03/24 08:32:43;;;;;;;96.05;52.67;;;;;;;;;;5003557;28;20034;-78
2022/03/24 08:35:09;;;;;;;100.00;54.00;;;;;;;;;;5005358;28;20028;-79
2022/03/24 08:37:35;;;;;;;104.57;53.47;;;;;;;;;;5007592;28;20082;-77
2022/03/24 08:40:01;;;;;;;111.95;56.38;;;;;;;;;;5007670;28;20026;-79
2022/03/24 08:42:27;;;;;;;100.68;49.08;;;;;;;;;;5008350;28;20054;-77
2022/03/24 08:44:53;;;;;;;97.32;50.28;;;;;;;;;;5011288;28;20030;-73
2022/03/24 08:47:19;;;;;;;91.18;48.72;;;;;;;;;;5006184;28;20023;-78
2022/03/24 08:49:45;;;;;;;101.00;48.67;;;;;;;;;;5003248;28;20034;-78
2022/03/24 08:52:12;;;;;;;111.18;50.75;;;;;;;;;;4998838;28;20121;-80
2022/03/24 08:54:38;;;;;;;103.57;50.35;;;;;;;;;;5000689;28;20022;-81
2022/03/24 08:57:04;;;;;;;97.50;49.85;;;;;;;;;;5008103;28;20033;-79
2022/03/24 08:59:31;;;;;;;91.72;47.67;;;;;;;;;;5001134;28;20094;-78
2022/03/24 09:01:58;;;;;;;105.20;49.13;;;;;;;;;;5005717;28;20025;-77
2022/03/24 09:04:26;;;;;;;86.30;45.78;;;;;;;;;;5009697;28;20026;-79
2022/03/24 09:06:52;;;;;;;90.35;42.22;;;;;;;;;;5006683;28;20360;-79
2022/03/24 09:09:20;;;;;;;85.38;40.50;;;;;;;;;;5008100;28;20050;-79
2022/03/24 09:11:46;;;;;;;80.70;44.35;;;;;;;;;;5001389;28;20027;-79
2022/03/24 09:14:12;;;;;;;86.22;43.30;;;;;;;;;;5000445;28;20109;-78
2022/03/24 09:16:39;;;;;;;94.18;46.45;;;;;;;;;;5004314;28;20019;-79
2022/03/24 09:19:05;;;;;;;73.78;41.25;;;;;;;;;;5000248;28;20027;-79
2022/03/24 09:21:31;;;;;;;75.00;41.30;;;;;;;;;;4998706;28;20057;-80
2022/03/24 09:23:57;;;;;;;73.97;40.33;;;;;;;;;;4997672;28;20029;-77
2022/03/24 09:26:23;;;;;;;77.55;42.45;;;;;;;;;;4996303;28;20022;-75
2022/03/24 09:28:52;;;;;;;76.65;40.75;;;;;;;;;;4996016;28;20026;-76
2022/03/24 09:31:18;;;;;;;72.07;40.72;;;;;;;;;;4997104;28;20037;-76
2022/03/24 09:33:44;;;;;;;73.28;42.13;;;;;;;;;;4996168;28;20026;-77
2022/03/24 09:36:11;;;;;;;72.32;42.25;;;;;;;;;;4997258;28;20387;-76
2022/03/24 09:38:37;;;;;;;78.07;43.97;;;;;;;;;;5001454;28;20077;-78
2022/03/24 09:41:05;;;;;;;76.35;41.80;;;;;;;;;;5002050;28;20026;-78
2022/03/24 09:43:34;;;;;;;76.75;42.30;;;;;;;;;;4998216;28;20030;-77
2022/03/24 09:46:01;;;;;;;71.90;41.47;;;;;;;;;;4996390;28;20031;-76
2022/03/24 09:48:27;;;;;;;68.53;41.83;;;;;;;;;;4997416;28;20035;-78
2022/03/24 09:50:53;;;;;;;74.28;42.20;;;;;;;;;;4999110;28;20030;-77
2022/03/24 09:53:19;;;;;;;75.88;43.40;;;;;;;;;;5005082;28;20114;-79
2022/03/24 09:55:46;;;;;;;76.45;42.22;;;;;;;;;;5001381;28;20069;-79
2022/03/24 09:58:12;;;;;;;82.13;42.97;;;;;;;;;;5000848;28;20026;-77
2022/03/24 10:00:38;;;;;;;90.30;44.95;;;;;;;;;;5006196;28;20022;-76
2022/03/24 10:03:09;;;;;;;84.40;43.20;;;;;;;;;;5006795;28;20057;-75
2022/03/24 10:05:35;;;;;;;77.00;42.17;;;;;;;;;;5003847;28;20078;-76
2022/03/24 10:08:05;;;;;;;81.00;44.30;;;;;;;;;;5000455;28;20085;-78
2022/03/24 10:10:34;;;;;;;77.00;41.85;;;;;;;;;;5002054;28;20028;-79
2022/03/24 10:13:00;;;;;;;77.55;42.08;;;;;;;;;;5002094;28;20094;-77
2022/03/24 10:15:26;;;;;;;74.95;41.90;;;;;;;;;;5004998;28;20026;-80
2022/03/24 10:17:53;;;;;;;86.20;42.85;;;;;;;;;;5003463;28;20033;-80
2022/03/24 10:20:19;;;;;;;77.68;43.72;;;;;;;;;;5002485;28;20476;-78
2022/03/24 10:23:03;;;;;;;77.18;42.78;;;;;;;;;;5007298;28;20026;-79
2022/03/24 10:25:37;;;;;;;81.28;44.40;;;;;;;;;;5016897;28;20022;-76
2022/03/24 10:28:08;;;;;;;70.65;41.38;;;;;;;;;;5016933;28;20033;-77
2022/03/24 10:30:47;;;;;;;79.00;40.15;;;;;;;;;;5015337;28;20033;-76
2022/03/24 10:33:32;;;;;;;85.40;41.83;;;;;;;;;;5015135;28;20034;-74
2022/03/24 10:35:58;;;;;;;;;;;;;;;;;;5016461;28;20025;-76
2022/03/24 10:38:34;;;;;;;78.78;41.88;;;;;;;;;;5016473;28;19906;-76
2022/03/24 10:41:12;;;;;;;73.18;39.47;;;;;;;;;;5014683;28;20459;-76
2022/03/24 10:43:38;;;;;;;98.55;44.72;;;;;;;;;;5008184;28;20033;-80
2022/03/24 10:46:14;;;;;;;78.35;42.40;;;;;;;;;;5004679;28;20026;-73
2022/03/24 10:48:40;;;;;;;75.55;40.03;;;;;;;;;;5007897;28;20069;-78
2022/03/24 10:51:06;;;;;;;71.80;40.00;;;;;;;;;;5007420;28;20034;-78
2022/03/24 10:53:42;;;;;;;81.45;40.33;;;;;;;;;;5004377;28;20030;-80
2022/03/24 10:56:13;;;;;;;72.03;41.90;;;;;;;;;;5001870;28;20038;-77
2022/03/24 10:58:44;;;;;;;70.10;39.78;;;;;;;;;;5002640;28;20411;-79
2022/03/24 11:01:11;;;;;;;70.35;41.60;;;;;;;;;;5001890;28;20041;-79
2022/03/24 11:03:39;;;;;;;64.47;36.53;;;;;;;;;;5001095;28;20030;-79
2022/03/24 11:06:05;;;;;;;64.60;37.40;;;;;;;;;;5002830;28;20014;-77
2022/03/24 11:08:31;;;;;;;79.90;38.65;;;;;;;;;;5005400;28;20098;-79
2022/03/24 11:10:57;;;;;;;66.05;36.47;;;;;;;;;;5008776;28;20022;-79
2022/03/24 11:13:26;;;;;;;74.10;38.08;;;;;;;;;;5008972;28;20045;-77
2022/03/24 11:15:53;;;;;;;71.15;35.47;;;;;;;;;;5006448;28;20061;-78
2022/03/24 11:18:20;;;;;;;64.00;34.47;;;;;;;;;;5005324;28;20089;-79
2022/03/24 11:20:46;;;;;;;63.10;34.97;;;;;;;;;;5005939;28;20050;-78
2022/03/24 11:23:24;;;;;;;63.58;34.30;;;;;;;;;;5002709;28;20034;-77
2022/03/24 11:25:56;;;;;;;74.28;36.97;;;;;;;;;;5005575;28;20022;-78
2022/03/24 11:28:22;;;;;;;65.45;37.45;;;;;;;;;;5006276;28;20014;-78
2022/03/24 11:30:48;;;;;;;67.00;36.25;;;;;;;;;;5005637;28;20051;-77
2022/03/24 11:33:16;;;;;;;65.63;37.65;;;;;;;;;;5003718;28;20027;-75
2022/03/24 11:35:43;;;;;;;64.93;36.50;;;;;;;;;;5005896;28;20022;-77
2022/03/24 11:38:09;;;;;;;63.78;37.88;;;;;;;;;;5005326;28;20028;-77
2022/03/24 11:40:36;;;;;;;66.15;37.00;;;;;;;;;;5015873;28;20010;-78
2022/03/24 11:43:08;;;;;;;65.60;37.58;;;;;;;;;;5008477;28;20504;-78
2022/03/24 11:45:40;;;;;;;65.05;37.28;;;;;;;;;;5007533;28;20035;-78
2022/03/24 11:48:10;;;;;;;62.50;35.30;;;;;;;;;;5005441;28;20030;-78
2022/03/24 11:50:41;;;;;;;52.67;32.63;;;;;;;;;;5007710;28;20026;-77
2022/03/24 11:53:19;;;;;;;54.03;34.33;;;;;;;;;;5003498;28;20395;-76
2022/03/24 11:56:04;;;;;;;60.00;34.10;;;;;;;;;;5009274;28;20034;-78
2022/03/24 11:58:36;;;;;;;58.75;35.60;;;;;;;;;;5007578;28;20030;-78
2022/03/24 12:01:20;;;;;;;49.70;33.80;;;;;;;;;;5003692;28;20022;-77
2022/03/24 12:03:48;;;;;;;55.95;36.63;;;;;;;;;;5001830;28;20050;-79
2022/03/24 12:06:15;;;;;;;63.88;37.92;;;;;;;;;;5005519;28;20018;-77
2022/03/24 12:08:44;;;;;;;53.88;36.53;;;;;;;;;;5002667;28;20472;-79
2022/03/24 12:11:37;;;;;;;60.20;35.83;;;;;;;;;;5004013;28;20034;-80
2022/03/24 12:14:18;;;;;;;63.30;36.13;;;;;;;;;;5002300;28;20066;-76
2022/03/24 12:16:45;;;;;;;61.50;36.83;;;;;;;;;;5000542;28;20317;-77
2022/03/24 12:19:36;;;;;;;56.53;38.60;;;;;;;;;;4999415;28;20081;-78
2022/03/24 12:22:22;;;;;;;73.80;38.00;;;;;;;;;;4999893;28;20041;-78
2022/03/24 12:24:48;;;;;;;63.63;36.30;;;;;;;;;;4998320;28;20555;-76
2022/03/24 12:27:16;;;;;;;52.20;35.15;;;;;;;;;;4996704;28;20062;-80
2022/03/24 12:29:42;;;;;;;56.20;33.88;;;;;;;;;;4998113;28;20053;-81
2022/03/24 12:32:12;;;;;;;50.67;35.85;;;;;;;;;;4998165;28;20034;-77
2022/03/24 12:34:43;;;;;;;59.38;35.50;;;;;;;;;;4996800;28;20027;-76
2022/03/24 12:37:29;;;;;;;61.53;37.67;;;;;;;;;;4995775;28;20098;-79
2022/03/24 12:40:05;;;;;;;52.13;34.58;;;;;;;;;;4997338;28;20457;-79
2022/03/24 12:42:48;;;;;;;58.10;34.95;;;;;;;;;;4998360;28;20046;-78
2022/03/24 12:45:22;;;;;;;60.40;36.20;;;;;;;;;;5000224;28;20057;-78
2022/03/24 12:47:49;;;;;;;56.30;33.45;;;;;;;;;;4999987;28;20030;-78
2022/03/24 12:50:18;;;;;;;56.20;36.72;;;;;;;;;;5000974;28;20061;-81
2022/03/24 12:53:14;;;;;;;51.00;33.72;;;;;;;;;;4986793;28;20400;-79
2022/03/24 12:55:43;;;;;;;48.58;31.95;;;;;;;;;;4996073;28;20042;-77
2022/03/24 12:58:16;;;;;;;50.00;32.88;;;;;;;;;;5006274;28;20023;-77
2022/03/24 13:00:49;;;;;;;60.10;37.03;;;;;;;;;;4998073;28;20031;-77
2022/03/24 13:03:16;;;;;;;52.55;35.08;;;;;;;;;;4992876;28;20023;-77
2022/03/24 13:05:44;;;;;;;47.90;31.67;;;;;;;;;;4993160;28;20023;-78
2022/03/24 13:08:11;;;;;;;57.85;33.55;;;;;;;;;;4993238;28;20459;-77
2022/03/24 13:10:38;;;;;;;53.05;33.03;;;;;;;;;;4993408;28;20109;-78
2022/03/24 13:13:05;;;;;;;48.65;31.25;;;;;;;;;;4993815;28;20379;-79
2022/03/24 13:15:35;;;;;;;60.67;32.13;;;;;;;;;;4993309;28;20029;-78
2022/03/24 13:18:03;;;;;;;46.95;29.77;;;;;;;;;;4994563;28;20049;-79
2022/03/24 13:20:55;;;;;;;56.17;35.70;;;;;;;;;;4993924;28;20018;-77
2022/03/24 13:23:23;;;;;;;52.30;30.83;;;;;;;;;;4993907;28;20046;-77
2022/03/24 13:25:52;;;;;;;55.40;30.20;;;;;;;;;;4993936;28;20065;-78
2022/03/24 13:28:19;;;;;;;44.53;27.52;;;;;;;;;;4994614;28;20019;-76
2022/03/24 13:30:45;;;;;;;40.70;25.45;;;;;;;;;;4993192;28;20074;-77
2022/03/24 13:33:12;;;;;;;52.63;27.67;;;;;;;;;;4994153;28;20033;-74
2022/03/24 13:35:47;;;;;;;44.25;25.88;;;;;;;;;;4997771;28;20427;-81
2022/03/24 13:38:20;;;;;;;39.92;25.13;;;;;;;;;;4999157;28;20077;-79
2022/03/24 13:40:47;;;;;;;42.30;27.53;;;;;;;;;;5001769;28;20479;-74
2022/03/24 13:43:13;;;;;;;42.03;26.85;;;;;;;;;;5006797;28;20294;-76
2022/03/24 13:45:44;;;;;;;48.78;27.67;;;;;;;;;;5010267;28;20053;-79
2022/03/24 13:48:12;;;;;;;42.67;24.70;;;;;;;;;;5006351;28;20030;-79
2022/03/24 13:50:38;;;;;;;36.83;21.88;;;;;;;;;;5007342;28;20598;-75
2022/03/24 13:53:13;;;;;;;47.08;27.27;;;;;;;;;;5004005;28;20030;-78
2022/03/24 13:55:40;;;;;;;47.70;27.67;;;;;;;;;;5002202;28;20030;-77
2022/03/24 13:58:13;;;;;;;44.83;24.70;;;;;;;;;;5005152;28;20471;-76
2022/03/24 14:00:45;;;;;;;35.13;22.98;;;;;;;;;;5005288;28;20026;-80
2022/03/24 14:03:12;;;;;;;43.65;25.38;;;;;;;;;;5003145;28;20105;-79
2022/03/24 14:05:55;;;;;;;46.83;21.92;;;;;;;;;;5002497;28;20505;-75
2022/03/24 14:08:27;;;;;;;49.67;22.13;;;;;;;;;;5008414;28;20023;-75
2022/03/24 14:10:54;;;;;;;46.50;23.88;;;;;;;;;;5006394;28;20049;-76
2022/03/24 14:13:26;;;;;;;30.92;21.13;;;;;;;;;;5004979;28;20015;-78
2022/03/24 14:15:53;;;;;;;42.13;25.65;;;;;;;;;;5004453;28;20057;-76